createdAt,value
2022-09-12T00:01:54.677Z,12.337952
2022-09-12T00:05:19.842Z,12.287598
2022-09-12T00:08:45.115Z,12.277527
2022-09-12T00:12:10.238Z,12.267456
2022-09-12T00:15:35.407Z,12.19696
2022-09-12T00:19:00.588Z,12.156677
2022-09-12T00:22:25.754Z,12.06604
2022-09-12T00:25:50.918Z,12.005615
2022-09-12T00:29:16.138Z,11.975403
2022-09-12T00:32:41.288Z,11.955261
2022-09-12T00:36:06.478Z,11.94519
2022-09-12T00:39:31.637Z,11.93512
2022-09-12T00:42:56.807Z,11.884766
2022-09-12T00:46:22.020Z,11.864624
2022-09-12T00:49:47.169Z,11.854553
2022-09-12T00:53:12.367Z,11.93512
2022-09-12T00:56:37.519Z,11.94519
2022-09-12T01:00:02.699Z,12.005615
2022-09-12T01:03:28.025Z,12.045898
2022-09-12T01:06:53.071Z,12.086182
2022-09-12T01:10:18.830Z,12.045898
2022-09-12T01:13:44.010Z,12.086182
2022-09-12T01:17:09.188Z,12.156677
2022-09-12T01:20:34.393Z,12.19696
2022-09-12T01:23:59.547Z,12.237244
2022-09-12T01:27:24.749Z,12.267456
2022-09-12T01:30:49.923Z,12.287598
2022-09-12T01:34:15.121Z,12.287598
2022-09-12T01:37:40.327Z,12.307739
2022-09-12T01:41:05.477Z,12.31781
2022-09-12T01:44:30.666Z,12.31781
2022-09-12T01:47:55.837Z,12.237244
2022-09-12T01:51:21.034Z,12.18689
2022-09-12T01:54:46.227Z,12.166748
2022-09-12T01:58:11.373Z,12.136536
2022-09-12T02:01:36.557Z,12.116394
2022-09-12T02:05:01.746Z,12.096252
2022-09-12T02:08:26.914Z,12.136536
2022-09-12T02:11:52.110Z,12.136536
2022-09-12T02:15:17.254Z,12.136536
2022-09-12T02:18:42.457Z,12.045898
2022-09-12T02:22:07.584Z,12.005615
2022-09-12T02:25:32.768Z,11.975403
2022-09-12T02:28:57.984Z,11.93512
2022-09-12T02:32:23.143Z,11.884766
2022-09-12T02:35:48.314Z,11.804199
2022-09-12T02:39:13.478Z,11.753845
2022-09-12T02:42:38.705Z,11.723633
2022-09-12T02:46:03.949Z,11.69342
2022-09-12T02:49:29.041Z,11.673279
2022-09-12T02:52:54.212Z,11.612854
2022-09-12T02:56:19.389Z,11.552429
2022-09-12T02:59:44.551Z,11.512146
2022-09-12T03:03:09.760Z,11.461792
2022-09-12T03:06:34.915Z,11.421509
2022-09-12T03:10:00.112Z,11.391296
2022-09-12T03:13:25.276Z,11.351013
2022-09-12T03:16:50.491Z,11.320801
2022-09-12T03:20:15.649Z,11.330872
2022-09-12T03:23:40.781Z,11.270447
2022-09-12T03:27:05.987Z,11.250305
2022-09-12T03:30:31.201Z,11.18988
2022-09-12T03:33:56.371Z,11.109314
2022-09-12T03:37:21.580Z,11.099243
2022-09-12T03:40:48.536Z,11.069031
2022-09-12T03:44:11.912Z,11.028748
2022-09-12T03:47:37.098Z,10.93811
2022-09-12T03:51:02.320Z,10.877686
2022-09-12T03:54:27.510Z,10.817261
2022-09-12T03:57:52.659Z,10.80719
2022-09-12T04:01:17.871Z,10.787048
2022-09-12T04:04:43.026Z,10.787048
2022-09-12T04:08:08.230Z,10.726624
2022-09-12T04:11:33.415Z,10.696411
2022-09-12T04:14:58.578Z,10.656128
2022-09-12T04:18:23.758Z,10.585632
2022-09-12T04:21:48.913Z,10.605774
2022-09-12T04:25:14.085Z,10.635986
2022-09-12T04:28:39.299Z,10.635986
2022-09-12T04:32:04.423Z,10.635986
2022-09-12T04:35:29.595Z,10.635986
2022-09-12T04:38:54.797Z,10.656128
2022-09-12T04:42:19.987Z,10.656128
2022-09-12T04:45:45.195Z,10.656128
2022-09-12T04:49:10.367Z,10.635986
2022-09-12T04:52:35.553Z,10.625916
2022-09-12T04:56:00.777Z,10.595703
2022-09-12T04:59:25.982Z,10.545349
2022-09-12T05:02:51.205Z,10.525208
2022-09-12T05:06:16.368Z,10.525208
2022-09-12T05:09:41.617Z,10.505066
2022-09-12T05:13:06.821Z,10.55542
2022-09-12T05:16:32.065Z,10.625916
2022-09-12T05:19:57.235Z,10.656128
2022-09-12T05:23:22.430Z,10.656128
2022-09-12T05:26:47.630Z,10.656128
2022-09-12T05:30:12.812Z,10.635986
2022-09-12T05:33:37.994Z,10.756836
2022-09-12T05:37:03.170Z,10.887756
2022-09-12T05:40:28.311Z,11.038818
2022-09-12T05:43:53.521Z,11.099243
2022-09-12T05:47:18.736Z,11.18988
2022-09-12T05:50:44.009Z,11.280518
2022-09-12T05:54:09.226Z,11.391296
2022-09-12T05:57:34.384Z,11.461792
2022-09-12T06:00:59.606Z,11.542358
2022-09-12T06:04:24.748Z,11.572571
2022-09-12T06:07:49.909Z,11.612854
2022-09-12T06:11:15.090Z,11.673279
2022-09-12T06:14:40.250Z,11.753845
2022-09-12T06:18:05.450Z,11.804199
2022-09-12T06:21:30.638Z,11.864624
2022-09-12T06:24:57.928Z,11.955261
2022-09-12T06:28:21.035Z,12.045898
2022-09-12T06:31:46.198Z,12.116394
2022-09-12T06:35:11.397Z,12.19696
2022-09-12T06:38:36.576Z,12.337952
2022-09-12T06:42:01.759Z,12.418518
2022-09-12T06:45:26.968Z,12.519226
2022-09-12T06:48:52.173Z,12.599792
2022-09-12T06:52:17.341Z,12.7005
2022-09-12T06:55:42.525Z,12.82135
2022-09-12T06:59:07.706Z,12.922058
2022-09-12T07:02:32.976Z,13.002625
2022-09-12T07:05:58.103Z,13.103333
2022-09-12T07:09:23.300Z,13.224182
2022-09-12T07:12:48.499Z,13.32489
2022-09-12T07:16:17.394Z,13.405457
2022-09-12T07:19:38.962Z,13.455811
2022-09-12T07:23:04.135Z,13.516235
2022-09-12T07:26:29.331Z,13.536377
2022-09-12T07:29:54.512Z,13.596802
2022-09-12T07:33:19.715Z,13.627014
2022-09-12T07:36:44.962Z,13.687439
2022-09-12T07:40:10.167Z,13.768005
2022-09-12T07:43:35.375Z,13.838501
2022-09-12T07:47:00.507Z,13.838501
2022-09-12T07:50:25.696Z,13.868713
2022-09-12T07:53:50.905Z,13.878784
2022-09-12T07:57:16.059Z,13.848572
2022-09-12T08:00:41.268Z,13.868713
2022-09-12T08:04:06.514Z,13.868713
2022-09-12T08:07:31.723Z,13.848572
2022-09-12T08:10:56.973Z,13.848572
2022-09-12T08:14:22.110Z,13.868713
2022-09-12T08:17:47.315Z,13.999634
2022-09-12T08:21:12.491Z,13.989563
2022-09-12T08:24:37.642Z,14.029846
2022-09-12T08:28:02.897Z,14.060059
2022-09-12T08:31:28.056Z,14.120483
2022-09-12T08:34:53.321Z,14.221191
2022-09-12T08:38:18.520Z,14.241333
2022-09-12T08:41:43.678Z,14.321899
2022-09-12T08:45:08.886Z,14.402466
2022-09-12T08:48:34.048Z,14.462891
2022-09-12T08:51:59.306Z,14.523315
2022-09-12T08:55:24.526Z,14.553528
2022-09-12T08:58:49.724Z,14.613953
2022-09-12T09:02:15.062Z,14.654236
2022-09-12T09:05:40.182Z,14.724731
2022-09-12T09:09:05.360Z,14.805298
2022-09-12T09:12:30.578Z,14.885864
2022-09-12T09:15:55.801Z,14.986572
2022-09-12T09:19:21.007Z,15.08728
2022-09-12T09:22:46.192Z,15.228271
2022-09-12T09:26:11.448Z,15.379333
2022-09-12T09:29:36.715Z,15.379333
2022-09-12T09:33:01.925Z,15.439758
2022-09-12T09:36:27.191Z,15.560608
2022-09-12T09:39:52.430Z,15.681458
2022-09-12T09:43:17.673Z,15.802307
2022-09-12T09:46:42.934Z,15.933228
2022-09-12T09:50:08.699Z,16.023865
2022-09-12T09:53:33.951Z,16.144714
2022-09-12T09:56:59.168Z,16.154785
2022-09-12T10:00:24.427Z,16.205139
2022-09-12T10:03:49.668Z,16.245422
2022-09-12T10:07:14.913Z,16.275635
2022-09-12T10:10:40.179Z,16.295776
2022-09-12T10:14:05.417Z,16.275635
2022-09-12T10:17:34.091Z,16.325989
2022-09-12T10:20:55.861Z,16.426697
2022-09-12T10:24:21.099Z,16.487122
2022-09-12T10:27:46.323Z,16.638184
2022-09-12T10:31:11.586Z,16.748962
2022-09-12T10:34:36.715Z,16.889954
2022-09-12T10:38:01.970Z,17.000732
2022-09-12T10:41:27.144Z,17.081299
2022-09-12T10:44:52.346Z,17.071228
2022-09-12T10:48:17.545Z,17.141724
2022-09-12T10:51:42.708Z,17.161865
2022-09-12T10:55:07.883Z,17.151794
2022-09-12T10:58:33.616Z,17.071228
2022-09-12T11:01:58.856Z,17.000732
2022-09-12T11:05:24.010Z,16.97052
2022-09-12T11:08:49.187Z,16.960449
2022-09-12T11:12:14.391Z,16.97052
2022-09-12T11:15:39.610Z,17.041016
2022-09-12T11:19:04.775Z,17.141724
2022-09-12T11:22:31.990Z,17.192078
2022-09-12T11:25:55.198Z,17.121582
2022-09-12T11:29:20.384Z,17.121582
2022-09-12T11:32:45.593Z,17.071228
2022-09-12T11:36:10.796Z,17.010803
2022-09-12T11:39:35.964Z,16.97052
2022-09-12T11:43:01.143Z,16.980591
2022-09-12T11:46:26.323Z,17.010803
2022-09-12T11:49:51.490Z,17.041016
2022-09-12T11:53:16.705Z,17.151794
2022-09-12T11:56:41.845Z,17.302856
2022-09-12T12:00:07.024Z,17.413635
2022-09-12T12:03:32.283Z,17.463989
2022-09-12T12:06:57.389Z,17.433777
2022-09-12T12:10:22.584Z,17.413635
2022-09-12T12:13:47.748Z,17.443848
2022-09-12T12:17:12.902Z,17.443848
2022-09-12T12:20:38.130Z,17.443848
2022-09-12T12:24:03.359Z,17.494202
2022-09-12T12:27:28.578Z,17.584839
2022-09-12T12:30:53.804Z,17.59491
2022-09-12T12:34:18.945Z,17.655334
2022-09-12T12:37:44.144Z,17.635193
2022-09-12T12:41:09.321Z,17.675476
2022-09-12T12:44:34.516Z,17.735901
2022-09-12T12:47:59.670Z,17.786255
2022-09-12T12:51:24.837Z,17.836609
2022-09-12T12:54:50.015Z,17.866821
2022-09-12T12:58:15.200Z,17.987671
2022-09-12T13:01:40.543Z,17.987671
2022-09-12T13:05:05.699Z,18.027954
2022-09-12T13:08:30.890Z,18.068237
2022-09-12T13:11:56.041Z,18.108521
2022-09-12T13:15:21.277Z,18.118591
2022-09-12T13:18:46.587Z,18.108521
2022-09-12T13:22:11.617Z,18.108521
2022-09-12T13:25:36.796Z,18.138733
2022-09-12T13:29:01.962Z,18.017883
2022-09-12T13:32:27.159Z,17.947388
2022-09-12T13:35:52.511Z,17.947388
2022-09-12T13:39:17.674Z,17.927246
2022-09-12T13:42:42.856Z,17.917175
2022-09-12T13:46:09.100Z,17.947388
2022-09-12T13:49:33.190Z,17.967529
2022-09-12T13:52:58.389Z,17.987671
2022-09-12T13:56:23.542Z,18.027954
2022-09-12T13:59:48.774Z,18.09845
2022-09-12T14:03:13.952Z,18.168945
2022-09-12T14:06:39.206Z,18.249512
2022-09-12T14:10:04.487Z,18.249512
2022-09-12T14:13:29.633Z,18.259583
2022-09-12T14:16:54.834Z,18.269653
2022-09-12T14:20:19.987Z,18.269653
2022-09-12T14:23:45.158Z,18.299866
2022-09-12T14:27:10.365Z,18.269653
2022-09-12T15:04:26.376Z,18.068237
2022-09-12T15:07:51.511Z,18.068237
2022-09-12T15:11:16.689Z,18.068237
2022-09-12T15:14:41.864Z,18.068237
2022-09-12T15:18:07.180Z,18.068237
2022-09-12T15:21:32.828Z,18.078308
2022-09-12T15:24:58.260Z,18.108521
2022-09-12T15:28:24.109Z,18.068237
2022-09-12T15:31:49.326Z,18.048096
2022-09-12T15:35:14.558Z,17.967529
2022-09-12T15:38:39.900Z,17.957458
2022-09-12T15:42:05.000Z,17.927246
2022-09-12T15:45:30.212Z,17.917175
2022-09-12T15:48:55.419Z,17.917175
2022-09-12T15:52:20.692Z,17.886963
2022-09-12T15:55:46.012Z,17.886963
2022-09-12T15:59:11.124Z,17.917175
2022-09-12T16:02:36.361Z,17.917175
2022-09-12T16:06:01.562Z,17.957458
2022-09-12T16:09:26.732Z,17.997742
2022-09-12T16:12:52.044Z,18.068237
2022-09-12T16:16:17.149Z,18.068237
2022-09-12T16:19:42.353Z,18.068237
2022-09-12T16:23:07.570Z,18.078308
2022-09-12T16:26:32.748Z,18.017883
2022-09-12T16:29:58.039Z,17.967529
2022-09-12T16:33:23.201Z,17.957458
2022-09-12T16:36:48.372Z,17.897034
2022-09-12T16:40:13.671Z,17.85675
2022-09-12T16:43:38.818Z,17.806396
2022-09-12T16:47:04.035Z,17.776184
2022-09-12T16:50:29.249Z,17.715759
2022-09-12T16:53:54.491Z,17.625122
2022-09-12T16:57:19.692Z,17.564697
2022-09-12T17:00:44.887Z,17.514343
2022-09-12T17:04:10.121Z,17.363281
2022-09-12T17:07:35.314Z,17.151794
2022-09-12T17:11:00.746Z,16.910095
2022-09-12T17:14:25.909Z,16.809387
2022-09-12T17:17:51.200Z,16.628113
2022-09-12T17:21:16.422Z,16.497192
2022-09-12T17:24:41.661Z,16.416626
2022-09-12T17:28:06.841Z,16.295776
2022-09-12T17:31:32.113Z,16.114502
2022-09-12T17:34:57.292Z,15.933228
2022-09-12T17:38:25.231Z,15.762024
2022-09-12T17:41:47.730Z,15.641174
2022-09-12T17:45:16.354Z,15.490112
2022-09-12T17:48:38.326Z,15.359192
2022-09-12T17:52:03.597Z,15.248413
2022-09-12T17:55:28.871Z,15.097351
2022-09-12T17:58:54.004Z,15.006714
2022-09-12T18:02:19.186Z,14.936218
2022-09-12T18:05:47.416Z,14.855652
2022-09-12T18:09:12.654Z,14.795227
2022-09-12T18:12:37.920Z,14.754944
2022-09-12T18:16:03.111Z,14.694519
2022-09-12T18:19:28.277Z,14.644165
2022-09-12T18:22:53.508Z,14.58374
2022-09-12T18:26:18.742Z,14.543457
2022-09-12T18:29:51.932Z,14.472961
2022-09-12T18:33:09.221Z,14.422607
2022-09-12T18:36:34.392Z,14.392395
2022-09-12T18:39:59.716Z,14.352112
2022-09-12T18:43:24.862Z,14.321899
2022-09-12T18:46:50.150Z,14.271545
2022-09-12T18:50:15.215Z,14.241333
2022-09-12T18:53:40.404Z,14.180908
2022-09-12T18:57:05.599Z,14.170837
2022-09-12T19:00:30.860Z,14.170837
2022-09-12T19:03:56.023Z,14.170837
2022-09-12T19:07:21.186Z,14.140625
2022-09-12T19:10:46.400Z,14.100342
2022-09-12T19:14:11.608Z,14.100342
2022-09-12T19:17:36.827Z,14.060059
2022-09-12T19:21:02.033Z,14.029846
2022-09-12T19:24:27.237Z,13.999634
2022-09-12T19:27:52.422Z,14.060059
2022-09-12T19:31:17.664Z,14.070129
2022-09-12T19:34:42.819Z,14.039917
2022-09-12T19:38:08.124Z,14.100342
2022-09-12T19:41:33.219Z,14.100342
2022-09-12T19:44:58.411Z,14.100342
2022-09-12T19:48:23.731Z,14.090271
2022-09-12T19:51:48.963Z,14.029846
2022-09-12T19:55:14.345Z,13.999634
2022-09-12T19:58:39.466Z,13.959351
2022-09-12T20:02:04.784Z,13.959351
2022-09-12T20:05:29.956Z,13.919067
2022-09-12T20:08:55.198Z,13.888855
2022-09-12T20:12:20.517Z,13.838501
2022-09-12T20:15:45.667Z,13.818359
2022-09-12T20:19:10.888Z,13.868713
2022-09-12T20:22:39.839Z,13.868713
2022-09-12T20:26:01.367Z,13.908997
2022-09-12T20:29:26.650Z,13.919067
2022-09-12T20:32:51.838Z,13.989563
2022-09-12T20:36:17.076Z,13.989563
2022-09-12T20:39:42.323Z,13.959351
2022-09-12T20:43:07.573Z,13.94928
2022-09-12T20:46:32.892Z,13.919067
2022-09-12T20:49:58.061Z,13.919067
2022-09-12T20:53:23.317Z,13.888855
2022-09-12T20:56:48.560Z,13.888855
2022-09-12T21:00:13.800Z,13.888855
2022-09-12T21:03:39.041Z,13.888855
2022-09-12T21:07:04.308Z,13.908997
2022-09-12T21:10:29.531Z,13.919067
2022-09-12T21:13:54.759Z,13.94928
2022-09-12T21:17:19.999Z,13.908997
2022-09-12T21:20:45.266Z,13.908997
2022-09-12T21:24:10.463Z,13.838501
2022-09-12T21:27:35.702Z,13.808289
2022-09-12T21:31:01.005Z,13.727722
2022-09-12T21:34:26.183Z,13.687439
2022-09-12T21:37:51.453Z,13.657227
2022-09-12T21:41:16.652Z,13.687439
2022-09-12T21:44:41.880Z,13.596802
2022-09-12T21:48:07.110Z,13.596802
2022-09-12T21:51:32.345Z,13.586731
2022-09-12T21:54:57.681Z,13.586731
2022-09-12T21:58:22.794Z,13.566589
2022-09-12T22:01:48.116Z,13.516235
2022-09-12T22:05:13.274Z,13.536377
2022-09-12T22:08:38.490Z,13.536377
2022-09-12T22:12:03.760Z,13.516235
2022-09-12T22:15:44.353Z,13.516235
2022-09-12T22:18:54.169Z,13.516235
2022-09-12T22:22:19.406Z,13.506165
2022-09-12T22:25:44.634Z,13.506165
2022-09-12T22:29:09.887Z,13.566589
2022-09-12T22:32:35.051Z,13.616943
2022-09-12T22:36:00.272Z,13.657227
2022-09-12T22:39:25.517Z,13.768005
2022-09-12T22:42:50.722Z,13.848572
2022-09-12T22:46:16.000Z,13.919067
2022-09-12T22:49:41.190Z,14.019775
2022-09-12T22:53:06.390Z,14.060059
2022-09-12T22:56:31.621Z,14.090271
2022-09-12T22:59:56.845Z,14.029846
2022-09-12T23:03:22.126Z,14.120483
2022-09-12T23:06:47.282Z,14.060059
2022-09-12T23:10:12.485Z,14.070129
2022-09-12T23:13:37.679Z,14.070129
2022-09-12T23:17:02.923Z,14.100342
2022-09-12T23:20:28.172Z,14.120483
2022-09-12T23:23:53.388Z,14.140625
2022-09-12T23:27:18.605Z,14.150696
2022-09-12T23:30:43.843Z,14.150696
2022-09-12T23:34:09.093Z,14.120483
2022-09-12T23:37:34.287Z,14.140625
2022-09-12T23:40:59.498Z,14.170837
2022-09-12T23:44:24.697Z,14.180908
2022-09-12T23:47:49.853Z,14.170837
2022-09-12T23:51:15.084Z,14.170837
2022-09-12T23:54:40.320Z,14.070129
2022-09-12T23:58:05.535Z,14.019775
